Time;durP1;ratioP1;P1;durP2;ratioP2;P2;SDS_P1;SDS_P2;PMS_P1;PMS_P2;Temp;Humidity;BMP_temperature;BMP_pressure;BME280_temperature;BME280_humidity;BME280_pressure;Samples;Min_cycle;Max_cycle;Signal;HPM_P1;HPM_P2
2021/05/19 00:01:23;;;;;;;1.20;1.10;;;19.20;51.40;;;;;;5009314;28;20976;-45
2021/05/19 00:03:49;;;;;;;1.53;1.33;;;19.20;51.50;;;;;;5010663;28;20280;-44
2021/05/19 00:06:15;;;;;;;1.70;1.60;;;19.20;52.00;;;;;;5009626;28;20264;-45
2021/05/19 00:08:41;;;;;;;1.87;1.07;;;19.20;51.80;;;;;;5006465;28;20190;-45
2021/05/19 00:11:07;;;;;;;1.57;1.47;;;19.30;51.80;;;;;;5009281;28;20201;-45
2021/05/19 00:13:34;;;;;;;2.73;1.50;;;19.20;51.40;;;;;;5010181;28;20445;-45
2021/05/19 00:16:00;;;;;;;1.33;1.10;;;19.20;51.50;;;;;;5011330;28;20456;-45
2021/05/19 00:18:26;;;;;;;2.50;1.33;;;19.10;51.60;;;;;;5011382;28;20445;-45
2021/05/19 00:20:52;;;;;;;1.60;1.50;;;19.10;52.00;;;;;;5005980;28;20447;-44
2021/05/19 00:23:18;;;;;;;4.23;1.50;;;19.10;52.10;;;;;;5010420;28;20360;-45
2021/05/19 00:25:44;;;;;;;1.87;1.60;;;19.20;51.90;;;;;;5010802;28;20355;-45
2021/05/19 00:28:09;;;;;;;1.13;1.10;;;19.20;51.90;;;;;;5011060;28;20459;-44
2021/05/19 00:30:37;;;;;;;1.00;1.00;;;19.20;51.80;;;;;;5012197;28;20194;-45
2021/05/19 00:33:03;;;;;;;1.33;1.23;;;19.20;52.00;;;;;;5009875;28;20646;-44
2021/05/19 00:35:29;;;;;;;3.07;1.53;;;19.20;52.00;;;;;;5010326;28;20445;-45
2021/05/19 00:37:54;;;;;;;2.60;1.20;;;19.30;52.00;;;;;;5004690;28;20898;-46
2021/05/19 00:40:20;;;;;;;1.40;1.30;;;19.40;52.10;;;;;;5006158;28;20253;-45
2021/05/19 00:42:46;;;;;;;1.60;1.50;;;19.40;51.90;;;;;;5007605;28;20645;-45
2021/05/19 00:45:12;;;;;;;1.97;1.37;;;19.40;51.80;;;;;;5009372;28;20705;-45
2021/05/19 00:47:42;;;;;;;1.93;1.50;;;19.40;51.80;;;;;;5004322;28;20197;-46
2021/05/19 00:50:18;;;;;;;1.67;1.20;;;19.50;52.00;;;;;;5007625;28;20441;-49
2021/05/19 00:52:43;;;;;;;1.60;1.50;;;19.50;52.00;;;;;;5005934;28;20455;-44
2021/05/19 00:55:10;;;;;;;3.63;1.63;;;19.50;52.00;;;;;;5009806;28;20441;-45
2021/05/19 00:57:37;;;;;;;3.60;1.70;;;19.60;51.80;;;;;;5009151;28;20329;-46
2021/05/19 01:00:06;;;;;;;3.30;1.20;;;19.60;52.30;;;;;;5005956;28;20484;-46
2021/05/19 01:02:32;;;;;;;1.43;1.33;;;19.60;51.80;;;;;;5008334;28;20476;-46
2021/05/19 01:04:58;;;;;;;1.67;1.40;;;19.60;51.70;;;;;;5013343;28;20821;-45
2021/05/19 01:07:26;;;;;;;1.80;1.50;;;19.60;51.80;;;;;;5012372;28;20194;-46
2021/05/19 01:09:52;;;;;;;1.60;1.50;;;19.60;51.70;;;;;;5011492;28;20459;-45
2021/05/19 01:12:20;;;;;;;3.63;1.90;;;19.60;51.30;;;;;;5006800;28;20440;-44
2021/05/19 01:14:46;;;;;;;2.00;1.40;;;19.60;51.30;;;;;;5005750;28;20532;-45
2021/05/19 01:17:12;;;;;;;3.73;1.40;;;19.60;51.30;;;;;;5007849;28;20441;-45
2021/05/19 01:19:40;;;;;;;2.17;1.50;;;19.60;51.50;;;;;;5011942;28;20496;-45
2021/05/19 01:22:11;;;;;;;1.93;1.73;;;19.60;51.50;;;;;;5006580;28;20202;-46
2021/05/19 01:24:38;;;;;;;2.03;1.83;;;19.60;50.90;;;;;;5009184;28;20445;-45
2021/05/19 01:27:05;;;;;;;3.00;1.60;;;19.50;50.90;;;;;;5006640;28;20441;-46
2021/05/19 01:29:33;;;;;;;5.53;1.50;;;19.50;51.20;;;;;;5011427;28;20453;-47
2021/05/19 01:31:58;;;;;;;2.20;1.20;;;19.50;51.20;;;;;;5011453;28;20484;-46
2021/05/19 01:34:24;;;;;;;3.30;1.53;;;19.50;51.40;;;;;;5006269;28;20883;-45
2021/05/19 01:36:50;;;;;;;2.60;1.50;;;19.40;51.00;;;;;;5009332;28;20190;-44
2021/05/19 01:39:15;;;;;;;1.97;1.87;;;19.30;51.10;;;;;;5004414;28;20751;-45
2021/05/19 01:41:41;;;;;;;1.67;1.57;;;19.20;52.00;;;;;;5009288;28;20201;-44
2021/05/19 01:44:11;;;;;;;2.10;1.90;;;19.10;51.80;;;;;;5007615;28;20198;-44
2021/05/19 01:46:37;;;;;;;2.37;1.80;;;19.00;52.40;;;;;;5008153;28;20204;-44
2021/05/19 01:49:05;;;;;;;2.03;1.83;;;18.90;52.80;;;;;;5009496;28;20445;-48
2021/05/19 01:51:31;;;;;;;1.77;1.67;;;18.90;52.50;;;;;;5009738;28;20202;-45
2021/05/19 01:53:56;;;;;;;1.23;1.13;;;18.80;52.40;;;;;;5006598;28;20491;-44
2021/05/19 01:56:22;;;;;;;1.80;1.70;;;18.70;53.20;;;;;;5005197;28;20194;-45
2021/05/19 01:58:48;;;;;;;1.93;1.83;;;18.70;53.70;;;;;;5005706;28;20218;-45
2021/05/19 02:01:13;;;;;;;1.70;1.60;;;18.80;53.80;;;;;;5005934;28;20273;-45
2021/05/19 02:03:39;;;;;;;1.63;1.50;;;18.80;53.70;;;;;;5009389;28;20248;-47
2021/05/19 02:06:04;;;;;;;1.67;1.57;;;18.90;53.60;;;;;;5012245;28;20282;-45
2021/05/19 02:08:30;;;;;;;1.97;1.83;;;19.00;53.40;;;;;;5006908;28;20637;-44
2021/05/19 02:10:56;;;;;;;2.33;2.00;;;19.00;52.80;;;;;;5005963;28;20197;-44
2021/05/19 02:13:23;;;;;;;2.60;1.40;;;19.10;53.00;;;;;;5010726;28;20277;-46
2021/05/19 02:15:48;;;;;;;1.90;1.63;;;19.00;52.80;;;;;;5011034;28;20207;-44
2021/05/19 02:18:14;;;;;;;2.33;2.13;;;19.10;53.20;;;;;;5004828;28;20445;-45
2021/05/19 02:20:40;;;;;;;2.23;2.03;;;19.10;52.90;;;;;;5008024;28;20208;-45
2021/05/19 02:23:05;;;;;;;1.80;1.70;;;19.10;52.40;;;;;;5009760;28;20320;-45
2021/05/19 02:25:31;;;;;;;2.30;2.10;;;19.00;52.50;;;;;;5010011;28;20327;-46
2021/05/19 02:27:57;;;;;;;2.70;1.80;;;18.90;52.60;;;;;;5010295;28;20205;-44
2021/05/19 02:30:23;;;;;;;3.00;2.00;;;18.80;53.20;;;;;;5004870;28;20665;-44
2021/05/19 02:32:49;;;;;;;2.27;1.83;;;18.80;53.00;;;;;;5007609;28;20209;-45
2021/05/19 02:35:16;;;;;;;5.23;1.53;;;18.70;53.20;;;;;;5008686;28;20460;-44
2021/05/19 02:37:42;;;;;;;1.80;1.70;;;18.80;53.60;;;;;;5009209;28;20966;-44
2021/05/19 02:40:11;;;;;;;1.60;1.50;;;18.80;53.50;;;;;;5003692;28;20558;-44
2021/05/19 02:42:37;;;;;;;2.07;1.90;;;18.90;53.60;;;;;;5007233;28;20447;-45
2021/05/19 02:45:05;;;;;;;1.80;1.70;;;19.00;53.30;;;;;;5002389;28;20448;-45
2021/05/19 02:47:31;;;;;;;2.67;1.93;;;19.00;52.90;;;;;;5008346;28;20464;-45
2021/05/19 02:49:56;;;;;;;2.07;1.97;;;19.10;52.60;;;;;;5010672;28;20928;-46
2021/05/19 02:52:23;;;;;;;3.30;2.50;;;19.00;52.30;;;;;;5003878;28;20202;-44
2021/05/19 02:54:49;;;;;;;1.37;1.27;;;19.00;52.40;;;;;;5008855;28;20321;-47
2021/05/19 02:57:15;;;;;;;6.20;2.20;;;18.90;52.50;;;;;;5008059;28;20539;-46
2021/05/19 02:59:40;;;;;;;2.47;1.63;;;18.90;52.80;;;;;;5005751;28;20968;-45
2021/05/19 03:02:06;;;;;;;2.20;1.90;;;18.90;52.90;;;;;;5008890;28;20190;-45
2021/05/19 03:04:32;;;;;;;3.17;2.10;;;18.90;53.10;;;;;;5008769;28;20224;-46
2021/05/19 03:06:58;;;;;;;3.30;1.87;;;19.00;53.10;;;;;;5007962;28;20444;-49
2021/05/19 03:09:24;;;;;;;2.60;1.90;;;19.00;52.80;;;;;;5008683;28;20206;-46
2021/05/19 03:11:50;;;;;;;2.37;2.27;;;19.10;52.50;;;;;;5009241;28;20446;-45
2021/05/19 03:14:15;;;;;;;2.07;1.90;;;19.00;52.40;;;;;;5005783;28;20252;-45
2021/05/19 03:16:41;;;;;;;1.63;1.53;;;19.00;52.20;;;;;;5006685;28;20249;-44
2021/05/19 03:19:07;;;;;;;2.67;1.90;;;19.00;52.20;;;;;;5008635;28;20222;-44
2021/05/19 03:21:32;;;;;;;2.47;2.27;;;19.00;52.40;;;;;;5005600;28;20956;-44
2021/05/19 03:23:58;;;;;;;2.90;2.10;;;19.00;52.10;;;;;;5005120;28;20609;-46
2021/05/19 03:26:24;;;;;;;1.83;1.60;;;19.00;52.10;;;;;;5002179;28;20213;-45
2021/05/19 03:28:49;;;;;;;1.90;1.80;;;19.00;52.40;;;;;;5006199;28;20205;-45
2021/05/19 03:31:15;;;;;;;2.70;1.93;;;19.00;52.20;;;;;;5008722;28;20281;-45
2021/05/19 03:33:41;;;;;;;3.43;2.00;;;19.10;52.30;;;;;;5004987;28;20221;-45
2021/05/19 03:36:07;;;;;;;2.37;2.17;;;19.10;52.30;;;;;;5010075;28;20194;-48
2021/05/19 03:38:35;;;;;;;1.70;1.60;;;19.20;52.00;;;;;;5005946;28;20232;-45
2021/05/19 03:41:01;;;;;;;5.20;2.00;;;19.20;52.00;;;;;;5009959;28;20449;-44
2021/05/19 03:43:27;;;;;;;1.80;1.70;;;19.20;52.00;;;;;;5007517;28;20851;-45
2021/05/19 03:45:54;;;;;;;2.17;2.07;;;19.20;51.90;;;;;;5010267;28;20528;-44
2021/05/19 03:48:19;;;;;;;1.70;1.60;;;19.20;51.80;;;;;;5007677;28;20248;-44
2021/05/19 03:50:46;;;;;;;1.83;1.73;;;19.20;51.60;;;;;;5007094;28;20452;-44
2021/05/19 03:53:12;;;;;;;2.00;1.90;;;19.20;51.60;;;;;;5008083;28;20213;-45
2021/05/19 03:55:38;;;;;;;2.43;1.67;;;19.20;51.40;;;;;;5008015;28;20445;-46
2021/05/19 03:58:04;;;;;;;2.93;2.00;;;19.20;51.40;;;;;;5006082;28;20467;-44
2021/05/19 04:00:33;;;;;;;1.60;1.50;;;19.20;51.70;;;;;;5004685;28;20298;-44
2021/05/19 04:02:59;;;;;;;2.23;2.03;;;19.20;51.40;;;;;;5006420;28;20442;-45
2021/05/19 04:05:27;;;;;;;2.23;1.70;;;19.20;51.30;;;;;;5006051;28;20459;-44
2021/05/19 04:07:55;;;;;;;1.60;1.50;;;19.30;51.70;;;;;;5006387;28;20193;-45
2021/05/19 04:10:24;;;;;;;2.17;1.70;;;19.30;51.70;;;;;;5007635;28;20813;-45
2021/05/19 04:12:51;;;;;;;1.50;1.40;;;19.30;51.40;;;;;;5008098;28;20940;-45
2021/05/19 04:15:19;;;;;;;1.83;1.73;;;19.30;51.30;;;;;;5008283;28;20449;-45
2021/05/19 04:17:44;;;;;;;1.50;1.40;;;19.20;51.40;;;;;;5007762;28;20878;-45
2021/05/19 04:20:11;;;;;;;1.50;1.40;;;19.20;51.40;;;;;;5008763;28;20587;-45
2021/05/19 04:22:36;;;;;;;5.23;1.50;;;19.20;51.40;;;;;;5007595;28;20678;-45
2021/05/19 04:25:04;;;;;;;2.23;1.77;;;19.20;51.40;;;;;;5008132;28;20441;-49
2021/05/19 04:27:29;;;;;;;1.70;1.60;;;19.20;51.50;;;;;;5002180;28;20932;-45
2021/05/19 04:29:55;;;;;;;2.97;1.43;;;19.20;51.60;;;;;;5002344;28;20449;-45
2021/05/19 04:32:21;;;;;;;1.53;1.43;;;19.20;51.50;;;;;;5009125;28;20284;-44
2021/05/19 04:34:46;;;;;;;2.60;2.20;;;19.20;51.60;;;;;;5006077;28;20621;-45
2021/05/19 04:37:12;;;;;;;3.43;1.30;;;19.20;51.70;;;;;;5012465;28;20272;-46
2021/05/19 04:39:38;;;;;;;2.20;1.80;;;19.30;51.40;;;;;;5010057;28;20246;-46
2021/05/19 04:42:04;;;;;;;1.80;1.70;;;19.10;51.20;;;;;;5009202;28;20256;-46
2021/05/19 04:44:29;;;;;;;3.80;1.80;;;18.90;51.10;;;;;;5010745;28;20453;-45
2021/05/19 04:46:55;;;;;;;2.07;1.87;;;18.60;51.50;;;;;;5014315;28;20194;-47
2021/05/19 04:49:21;;;;;;;2.20;2.07;;;18.30;51.90;;;;;;5009526;28;20225;-47
2021/05/19 04:51:47;;;;;;;3.40;2.10;;;18.10;52.40;;;;;;5011129;28;20223;-45
2021/05/19 04:54:14;;;;;;;3.30;1.90;;;17.90;52.70;;;;;;5010669;28;21081;-45
2021/05/19 04:56:40;;;;;;;2.70;2.00;;;17.70;53.90;;;;;;5009783;28;20193;-49
2021/05/19 04:59:06;;;;;;;5.53;1.70;;;17.50;53.70;;;;;;5006258;28;20540;-48
2021/05/19 05:01:32;;;;;;;2.33;2.13;;;17.40;54.10;;;;;;5008671;28;20502;-45
2021/05/19 05:03:57;;;;;;;2.60;2.40;;;17.30;54.40;;;;;;5008402;28;20453;-50
2021/05/19 05:06:23;;;;;;;5.30;2.20;;;17.20;54.70;;;;;;5012833;28;20459;-45
2021/05/19 05:08:48;;;;;;;3.00;1.83;;;17.20;55.10;;;;;;5011457;28;20220;-47
2021/05/19 05:11:15;;;;;;;3.63;2.00;;;17.10;55.60;;;;;;5006362;28;20249;-45
2021/05/19 05:13:41;;;;;;;8.07;1.80;;;17.10;55.90;;;;;;5008629;28;20194;-46
2021/05/19 05:16:06;;;;;;;3.90;1.97;;;16.90;58.30;;;;;;5011973;28;20456;-44
2021/05/19 05:18:36;;;;;;;2.80;1.63;;;17.20;57.80;;;;;;5010259;28;20483;-44
2021/05/19 05:21:02;;;;;;;1.90;1.80;;;17.60;56.50;;;;;;5008549;28;20201;-49
2021/05/19 05:23:29;;;;;;;3.30;1.80;;;17.80;55.30;;;;;;5006441;28;20449;-45
2021/05/19 05:25:55;;;;;;;1.77;1.67;;;18.10;54.40;;;;;;5009411;28;20456;-44
2021/05/19 05:28:20;;;;;;;3.57;1.30;;;18.30;53.60;;;;;;5007168;28;20884;-45
2021/05/19 05:30:46;;;;;;;2.03;1.93;;;18.50;53.20;;;;;;5007281;28;20528;-47
2021/05/19 05:33:12;;;;;;;3.23;1.50;;;18.60;52.90;;;;;;5009865;28;20287;-47
2021/05/19 05:35:37;;;;;;;1.77;1.67;;;18.70;52.70;;;;;;5009757;28;20198;-45
2021/05/19 05:38:03;;;;;;;1.73;1.63;;;18.80;52.60;;;;;;5011020;28;20553;-46
2021/05/19 05:40:28;;;;;;;1.50;1.40;;;18.80;52.40;;;;;;5011629;28;20233;-45
2021/05/19 05:42:54;;;;;;;1.90;1.80;;;18.90;52.20;;;;;;5012248;28;20222;-44
2021/05/19 05:45:20;;;;;;;8.10;1.90;;;19.00;52.20;;;;;;5009233;28;20198;-45
2021/05/19 05:47:45;;;;;;;1.50;1.40;;;19.10;52.70;;;;;;5011986;28;20198;-47
2021/05/19 05:50:12;;;;;;;3.80;2.00;;;19.10;51.90;;;;;;5011407;28;21576;-46
2021/05/19 05:52:38;;;;;;;4.77;2.43;;;19.20;51.80;;;;;;5009830;28;20312;-46
2021/05/19 05:55:05;;;;;;;1.80;1.70;;;19.20;51.80;;;;;;5009823;28;20453;-48
2021/05/19 05:57:31;;;;;;;4.80;1.80;;;19.30;51.70;;;;;;5011294;28;20502;-46
2021/05/19 05:59:57;;;;;;;5.97;1.67;;;19.30;51.60;;;;;;5009078;28;20481;-46
2021/05/19 06:02:23;;;;;;;3.60;2.10;;;19.30;52.70;;;;;;5009474;28;20456;-50
2021/05/19 06:04:49;;;;;;;2.00;1.57;;;19.50;52.70;;;;;;5008660;28;20190;-47
2021/05/19 06:07:15;;;;;;;4.80;2.50;;;19.60;51.80;;;;;;5007509;28;20453;-47
2021/05/19 06:09:44;;;;;;;4.23;1.30;;;19.60;51.50;;;;;;5008293;28;20441;-48
2021/05/19 06:12:10;;;;;;;2.00;1.80;;;19.70;51.80;;;;;;5011890;28;20192;-49
2021/05/19 06:14:35;;;;;;;6.37;2.23;;;19.80;51.50;;;;;;5008406;28;20438;-47
2021/05/19 06:17:03;;;;;;;2.27;2.17;;;19.80;51.10;;;;;;5008677;28;20650;-46
2021/05/19 06:19:28;;;;;;;6.93;2.10;;;19.80;50.80;;;;;;5009130;28;20307;-47
2021/05/19 06:21:54;;;;;;;1.90;1.60;;;19.80;50.70;;;;;;5010436;28;20433;-46
2021/05/19 06:24:19;;;;;;;5.23;2.40;;;19.80;50.70;;;;;;5007553;28;20754;-46
2021/05/19 06:26:45;;;;;;;2.17;2.07;;;19.80;50.60;;;;;;5010286;28;20190;-46
2021/05/19 06:29:11;;;;;;;6.50;2.50;;;19.90;50.70;;;;;;5010507;28;20194;-46
2021/05/19 06:31:38;;;;;;;2.53;2.33;;;19.90;50.60;;;;;;5009657;28;20225;-46
2021/05/19 06:34:04;;;;;;;1.93;1.80;;;19.90;50.50;;;;;;5009861;28;20824;-46
2021/05/19 06:36:29;;;;;;;3.50;2.00;;;19.90;50.50;;;;;;5011714;28;20523;-47
2021/05/19 06:38:55;;;;;;;2.60;2.40;;;19.90;50.80;;;;;;5006358;28;20237;-46
2021/05/19 06:41:21;;;;;;;2.80;2.00;;;19.90;50.60;;;;;;5011909;28;20556;-48
2021/05/19 06:43:46;;;;;;;2.40;2.20;;;19.90;50.50;;;;;;5011158;28;20194;-47
2021/05/19 06:46:12;;;;;;;2.27;1.80;;;20.00;50.50;;;;;;5010493;28;20189;-46
2021/05/19 06:48:38;;;;;;;3.23;2.30;;;19.90;50.40;;;;;;4994828;28;20190;-46
2021/05/19 06:51:03;;;;;;;3.10;2.30;;;20.00;50.50;;;;;;5004258;28;20273;-48
2021/05/19 06:53:29;;;;;;;4.00;2.07;;;19.90;50.40;;;;;;5002083;28;20213;-50
2021/05/19 06:55:56;;;;;;;3.10;2.80;;;19.90;50.30;;;;;;4997632;28;20201;-46
2021/05/19 06:58:22;;;;;;;3.27;2.90;;;20.00;50.30;;;;;;5005968;28;20206;-50
2021/05/19 07:00:48;;;;;;;3.33;2.40;;;20.00;50.20;;;;;;5007453;28;20439;-46
2021/05/19 07:03:13;;;;;;;4.50;2.10;;;20.00;50.40;;;;;;5002711;28;20202;-46
2021/05/19 07:05:39;;;;;;;2.90;2.30;;;20.00;50.50;;;;;;5005405;28;20198;-46
2021/05/19 07:08:06;;;;;;;3.73;3.00;;;20.00;50.30;;;;;;5002626;28;20273;-46
2021/05/19 07:10:32;;;;;;;2.70;2.50;;;20.00;50.20;;;;;;5009592;28;20205;-46
2021/05/19 07:12:58;;;;;;;2.90;2.30;;;20.00;50.30;;;;;;5000641;28;20433;-48
2021/05/19 07:15:24;;;;;;;4.03;2.40;;;20.10;50.30;;;;;;5003989;28;20940;-49
2021/05/19 07:17:49;;;;;;;3.47;2.40;;;20.10;50.40;;;;;;5010017;28;20664;-46
2021/05/19 07:20:15;;;;;;;4.07;2.60;;;20.10;50.10;;;;;;5004224;28;20276;-47
2021/05/19 07:22:41;;;;;;;3.77;2.77;;;20.20;50.30;;;;;;5000662;28;20220;-46
2021/05/19 07:25:08;;;;;;;2.93;2.73;;;20.20;50.10;;;;;;5011244;28;20553;-47
2021/05/19 07:27:34;;;;;;;2.10;1.90;;;20.20;49.90;;;;;;5012788;28;20498;-46
2021/05/19 07:30:01;;;;;;;3.33;2.37;;;20.00;51.90;;;;;;5009760;28;20845;-46
2021/05/19 07:32:26;;;;;;;6.60;2.77;;;20.20;51.70;;;;;;5010296;28;20444;-47
2021/05/19 07:34:52;;;;;;;4.57;2.63;;;20.30;50.80;;;;;;5004693;28;20434;-45
2021/05/19 07:37:18;;;;;;;3.93;1.70;;;20.50;50.00;;;;;;4991938;28;20496;-46
2021/05/19 07:39:43;;;;;;;2.60;1.90;;;20.50;49.60;;;;;;5010263;28;20249;-46
2021/05/19 07:42:16;;;;;;;1.70;1.60;;;20.60;50.00;;;;;;5002603;28;20190;-46
2021/05/19 07:44:42;;;;;;;2.53;1.70;;;20.80;49.60;;;;;;5000884;28;20838;-45
2021/05/19 07:47:07;;;;;;;2.13;1.73;;;20.90;48.90;;;;;;5009109;28;20436;-49
2021/05/19 07:49:33;;;;;;;3.70;2.07;;;21.20;48.70;;;;;;4997141;28;20604;-46
2021/05/19 07:51:58;;;;;;;4.83;2.60;;;21.50;47.50;;;;;;5004593;28;20186;-48
2021/05/19 07:54:27;;;;;;;2.97;2.67;;;21.90;46.90;;;;;;4996542;28;20266;-51
2021/05/19 07:56:57;;;;;;;3.57;3.00;;;22.00;44.80;;;;;;5003694;28;20276;-50
2021/05/19 07:59:26;;;;;;;3.20;2.93;;;22.00;45.60;;;;;;4998517;28;20493;-47
2021/05/19 08:02:02;;;;;;;2.97;2.80;;;22.00;44.60;;;;;;5005248;28;20492;-51
2021/05/19 08:04:29;;;;;;;3.23;3.03;;;21.60;44.50;;;;;;4997521;28;20996;-45
2021/05/19 08:06:55;;;;;;;6.83;3.10;;;20.70;46.40;;;;;;4999103;28;20532;-46
2021/05/19 08:09:21;;;;;;;3.57;3.27;;;19.40;46.90;;;;;;5002634;28;20515;-45
2021/05/19 08:11:47;;;;;;;5.93;3.30;;;18.50;49.20;;;;;;5005162;28;20452;-49
2021/05/19 08:14:14;;;;;;;5.17;3.07;;;18.40;51.10;;;;;;5010396;28;20243;-48
2021/05/19 08:16:40;;;;;;;3.27;2.97;;;18.50;51.30;;;;;;5006239;28;20469;-45
2021/05/19 08:19:05;;;;;;;6.93;3.50;;;18.50;51.90;;;;;;5006047;28;20492;-45
2021/05/19 08:21:31;;;;;;;4.70;4.07;;;18.50;52.30;;;;;;5009024;28;20194;-48
2021/05/19 08:23:56;;;;;;;8.23;3.57;;;18.50;52.30;;;;;;4999057;28;20194;-46
2021/05/19 08:26:22;;;;;;;6.20;3.20;;;18.40;52.20;;;;;;5009738;28;20277;-46
2021/05/19 08:28:49;;;;;;;4.00;3.60;;;18.50;52.70;;;;;;5011492;28;20202;-46
2021/05/19 08:31:18;;;;;;;4.80;3.13;;;18.70;53.30;;;;;;5009130;28;20291;-46
2021/05/19 08:33:45;;;;;;;4.43;3.60;;;18.70;52.90;;;;;;5008930;28;20507;-45
2021/05/19 08:36:11;;;;;;;4.53;3.30;;;18.90;53.50;;;;;;4994922;28;20465;-45
2021/05/19 08:38:38;;;;;;;4.47;3.60;;;19.00;53.20;;;;;;4996270;28;20469;-47
2021/05/19 08:41:07;;;;;;;3.43;2.70;;;18.90;53.70;;;;;;5013780;28;20447;-46
2021/05/19 08:43:34;;;;;;;3.80;2.63;;;19.00;55.00;;;;;;5012690;28;20504;-47
2021/05/19 08:46:03;;;;;;;2.80;2.60;;;19.00;54.20;;;;;;5012389;28;20781;-48
2021/05/19 08:48:31;;;;;;;3.00;2.70;;;19.00;53.60;;;;;;5003771;28;20447;-46
2021/05/19 08:50:57;;;;;;;5.70;2.73;;;19.00;53.00;;;;;;5013093;28;20440;-45
2021/05/19 08:53:26;;;;;;;3.93;2.67;;;18.80;53.30;;;;;;5004705;28;20440;-47
2021/05/19 08:55:52;;;;;;;3.90;2.90;;;18.70;54.20;;;;;;5012983;28;20476;-46
2021/05/19 08:58:17;;;;;;;2.30;2.10;;;18.80;54.20;;;;;;5012013;28;20430;-44
2021/05/19 09:00:43;;;;;;;3.77;2.57;;;18.80;53.50;;;;;;5015770;28;20476;-45
2021/05/19 09:03:13;;;;;;;2.80;2.43;;;18.80;53.40;;;;;;5006666;28;20210;-47
2021/05/19 09:05:40;;;;;;;3.77;2.67;;;18.90;53.20;;;;;;5014271;28;20276;-48
2021/05/19 09:08:08;;;;;;;2.63;2.50;;;18.80;53.20;;;;;;5010888;28;20440;-45
2021/05/19 09:10:37;;;;;;;5.63;2.20;;;18.90;52.80;;;;;;5015669;28;20498;-44
2021/05/19 09:13:02;;;;;;;2.90;2.60;;;19.00;54.10;;;;;;5011447;28;20433;-47
2021/05/19 09:15:48;;;;;;;3.27;3.00;;;19.20;54.20;;;;;;5010370;28;20491;-45
2021/05/19 09:18:14;;;;;;;3.20;2.90;;;19.10;53.50;;;;;;5012108;28;20266;-46
2021/05/19 09:20:48;;;;;;;3.30;2.77;;;18.90;53.40;;;;;;5007116;28;20492;-46
2021/05/19 09:23:21;;;;;;;4.07;3.50;;;18.80;53.50;;;;;;5016705;28;20719;-50
2021/05/19 09:26:10;;;;;;;3.70;2.87;;;18.90;54.90;;;;;;5013028;28;20511;-46
2021/05/19 09:28:36;;;;;;;3.60;2.63;;;19.20;54.30;;;;;;5008409;28;20436;-47
2021/05/19 09:31:02;;;;;;;4.57;2.60;;;19.40;52.90;;;;;;5008088;28;20970;-46
2021/05/19 09:33:28;;;;;;;3.07;2.30;;;19.60;53.70;;;;;;5008633;28;20606;-51
2021/05/19 09:36:21;;;;;;;5.57;2.57;;;20.00;54.60;;;;;;5010400;28;20527;-46
2021/05/19 09:38:53;;;;;;;2.40;2.20;;;20.30;52.90;;;;;;5008199;28;20475;-47
2021/05/19 09:41:28;;;;;;;2.57;1.97;;;20.20;49.80;;;;;;5015368;28;21022;-46
2021/05/19 09:43:57;;;;;;;4.67;2.03;;;20.10;49.40;;;;;;5014391;28;20882;-45
2021/05/19 09:49:19;;;;;;;3.43;1.90;;;20.30;48.70;;;;;;5018392;28;20593;-45
2021/05/19 09:51:50;;;;;;;6.50;2.10;;;20.70;49.30;;;;;;5009353;28;20450;-45
2021/05/19 09:54:32;;;;;;;2.70;1.90;;;20.70;46.40;;;;;;5002382;28;20436;-45
2021/05/19 09:57:01;;;;;;;4.40;1.93;;;20.70;47.50;;;;;;5018243;28;20504;-45
2021/05/19 09:59:27;;;;;;;2.43;2.23;;;20.90;46.90;;;;;;5012593;28;20484;-45
2021/05/19 10:01:54;;;;;;;4.10;2.00;;;21.10;47.80;;;;;;5009825;28;20437;-45
2021/05/19 10:04:23;;;;;;;1.97;1.83;;;21.10;45.70;;;;;;5007436;28;20437;-45
2021/05/19 10:06:49;;;;;;;1.97;1.70;;;21.20;45.70;;;;;;5003735;28;20590;-46
2021/05/19 10:09:16;;;;;;;2.00;1.80;;;21.00;44.60;;;;;;5002644;28;20812;-45
2021/05/19 10:11:44;;;;;;;3.47;1.87;;;21.10;44.60;;;;;;5014488;28;21057;-46
2021/05/19 10:14:13;;;;;;;4.83;3.00;;;21.30;45.20;;;;;;5010647;28;20499;-46
2021/05/19 10:16:45;;;;;;;2.10;2.00;;;21.50;44.60;;;;;;5010830;28;21027;-45
2021/05/19 10:19:24;;;;;;;1.73;1.63;;;21.50;43.10;;;;;;5006453;28;20860;-45
2021/05/19 10:21:50;;;;;;;1.63;1.53;;;21.50;44.40;;;;;;5008771;28;20854;-46
2021/05/19 10:24:15;;;;;;;2.10;1.20;;;21.50;41.10;;;;;;5007781;28;20481;-48
2021/05/19 10:27:03;;;;;;;2.20;1.37;;;21.70;41.30;;;;;;5001203;28;20546;-43
2021/05/19 10:29:50;;;;;;;1.40;1.30;;;22.00;41.70;;;;;;5013373;28;20567;-47
2021/05/19 10:32:21;;;;;;;1.70;1.33;;;22.20;42.10;;;;;;5005320;28;20441;-44
2021/05/19 10:34:59;;;;;;;1.80;1.23;;;22.30;40.60;;;;;;5008110;28;20441;-46
2021/05/19 10:37:27;;;;;;;3.53;1.43;;;22.40;40.40;;;;;;5010612;28;20916;-45
2021/05/19 10:40:12;;;;;;;2.33;1.50;;;22.50;41.10;;;;;;5011424;28;20848;-45
2021/05/19 10:42:41;;;;;;;1.90;1.17;;;22.60;41.30;;;;;;5011689;28;20539;-45
2021/05/19 10:45:13;;;;;;;1.93;1.10;;;22.90;41.20;;;;;;5011685;28;20515;-46
2021/05/19 10:47:40;;;;;;;4.77;1.33;;;23.00;38.50;;;;;;5009714;28;20441;-49
2021/05/19 10:58:39;;;;;;;1.10;1.00;;;23.10;34.50;;;;;;5008020;28;20455;-45
2021/05/19 11:01:10;;;;;;;1.27;1.00;;;23.00;36.50;;;;;;5011862;28;20881;-45
2021/05/19 11:03:37;;;;;;;1.77;1.10;;;23.10;35.40;;;;;;5008424;28;20464;-47
2021/05/19 11:06:04;;;;;;;0.93;0.93;;;23.40;37.50;;;;;;5011767;28;20429;-47
2021/05/19 11:08:34;;;;;;;2.23;1.07;;;23.60;36.00;;;;;;5010050;28;20665;-44
2021/05/19 11:11:30;;;;;;;1.47;1.00;;;23.50;33.90;;;;;;5004830;28;20440;-44
2021/05/19 11:13:58;;;;;;;1.00;1.00;;;23.20;33.40;;;;;;5002581;28;20948;-45
2021/05/19 11:16:29;;;;;;;1.43;0.80;;;23.10;33.10;;;;;;4995363;28;20806;-45
2021/05/19 11:19:19;;;;;;;1.30;1.10;;;23.30;32.40;;;;;;5009782;28;20472;-44
2021/05/19 11:21:44;;;;;;;1.40;1.30;;;23.50;34.60;;;;;;5011168;28;20436;-44
2021/05/19 11:24:14;;;;;;;4.10;1.33;;;23.40;33.60;;;;;;5010006;28;20467;-44
2021/05/19 11:26:41;;;;;;;1.93;1.10;;;23.00;34.00;;;;;;5009459;28;20255;-45
2021/05/19 11:29:10;;;;;;;1.20;1.10;;;22.90;31.90;;;;;;5000455;28;20503;-45
2021/05/19 11:31:44;;;;;;;2.10;1.00;;;23.00;33.80;;;;;;5010516;28;20456;-46
2021/05/19 11:34:11;;;;;;;0.90;0.90;;;22.80;31.70;;;;;;5009078;28;20528;-46
2021/05/19 11:36:41;;;;;;;1.97;1.20;;;22.80;31.90;;;;;;5008959;28;21102;-48
2021/05/19 11:39:37;;;;;;;1.17;1.03;;;22.80;30.40;;;;;;5009427;28;20579;-47
2021/05/19 11:42:23;;;;;;;1.50;1.13;;;23.00;33.80;;;;;;5013280;28;21881;-46
2021/05/19 11:45:06;;;;;;;2.53;1.00;;;23.40;34.50;;;;;;4998812;28;20460;-46
2021/05/19 11:47:32;;;;;;;3.00;1.10;;;23.80;33.50;;;;;;5002835;28;20437;-47
2021/05/19 11:50:16;;;;;;;2.80;1.20;;;24.20;33.50;;;;;;5011427;28;20471;-46
2021/05/19 11:52:45;;;;;;;1.70;1.33;;;24.30;32.20;;;;;;4998504;28;20198;-48
2021/05/19 11:55:38;;;;;;;2.10;1.60;;;24.10;33.20;;;;;;5008051;28;20449;-46
2021/05/19 11:58:19;;;;;;;1.50;1.00;;;24.10;34.40;;;;;;5012496;28;20448;-46
2021/05/19 12:00:45;;;;;;;1.90;1.20;;;24.30;32.80;;;;;;5015764;28;20515;-50
2021/05/19 12:03:13;;;;;;;1.30;1.03;;;24.30;32.90;;;;;;5018415;28;20449;-46
2021/05/19 12:05:55;;;;;;;1.40;1.00;;;24.50;32.80;;;;;;5002623;28;20441;-47
2021/05/19 12:08:23;;;;;;;1.77;1.30;;;24.70;33.40;;;;;;5006422;28;20952;-46
2021/05/19 12:11:06;;;;;;;1.83;1.00;;;25.00;32.30;;;;;;5003475;28;21257;-48
2021/05/19 12:13:36;;;;;;;1.60;1.10;;;24.90;29.80;;;;;;5008017;28;20544;-49
2021/05/19 12:16:02;;;;;;;1.13;1.00;;;25.00;31.90;;;;;;5008166;28;20433;-49
2021/05/19 12:18:28;;;;;;;1.67;1.17;;;25.30;30.80;;;;;;5007158;28;20468;-50
2021/05/19 12:20:53;;;;;;;1.03;0.93;;;25.00;28.50;;;;;;5010314;28;20524;-51
2021/05/19 12:23:19;;;;;;;4.10;1.10;;;25.00;28.50;;;;;;5001407;28;20201;-49
2021/05/19 12:25:45;;;;;;;3.10;1.27;;;24.90;29.20;;;;;;5004484;28;20198;-47
2021/05/19 12:28:23;;;;;;;0.90;0.90;;;24.70;29.90;;;;;;5007163;28;20657;-51
2021/05/19 12:30:51;;;;;;;2.10;1.40;;;24.80;30.40;;;;;;5005098;28;20535;-50
2021/05/19 12:33:26;;;;;;;5.80;1.53;;;24.90;29.90;;;;;;5009461;28;20947;-46
2021/05/19 12:35:52;;;;;;;1.00;0.90;;;25.00;30.10;;;;;;5010678;28;20446;-50
2021/05/19 12:38:24;;;;;;;2.20;0.90;;;25.10;30.00;;;;;;5003766;28;20515;-50
2021/05/19 12:40:51;;;;;;;1.23;1.10;;;25.20;30.50;;;;;;5004977;28;20493;-51
2021/05/19 12:43:34;;;;;;;2.00;1.10;;;25.40;29.70;;;;;;5003247;28;20437;-47
2021/05/19 12:46:14;;;;;;;1.50;1.40;;;25.50;29.70;;;;;;4999015;28;20449;-50
2021/05/19 12:48:40;;;;;;;1.50;1.20;;;25.80;29.70;;;;;;5002036;28;20457;-48
2021/05/19 12:51:06;;;;;;;1.13;1.00;;;25.80;29.30;;;;;;5004609;28;20432;-52
2021/05/19 12:53:34;;;;;;;2.23;1.10;;;25.80;28.40;;;;;;5007943;28;20196;-50
2021/05/19 12:56:12;;;;;;;1.03;0.90;;;25.60;26.60;;;;;;5009636;28;20444;-51
2021/05/19 12:59:09;;;;;;;4.50;1.07;;;25.50;24.90;;;;;;5009450;28;20954;-47
2021/05/19 13:01:45;;;;;;;1.27;1.03;;;24.80;25.60;;;;;;4997770;28;20457;-50
2021/05/19 13:04:16;;;;;;;1.33;1.23;;;24.40;27.30;;;;;;5012511;28;20512;-51